createdAt,value
2023-04-25T00:02:01.865Z,6.20
2023-04-25T00:04:29.146Z,6.10
2023-04-25T00:06:58.686Z,6.10
2023-04-25T00:09:28.174Z,6.10
2023-04-25T00:11:55.315Z,6.10
2023-04-25T00:14:22.754Z,6.20
2023-04-25T00:16:49.748Z,6.10
2023-04-25T00:19:16.911Z,6.10
2023-04-25T00:21:43.937Z,6.00
2023-04-25T00:24:10.870Z,6.10
2023-04-25T00:26:38.062Z,6.20
2023-04-25T00:29:05.020Z,5.90
2023-04-25T00:31:32.141Z,5.90
2023-04-25T00:34:00.174Z,5.90
2023-04-25T00:36:27.228Z,5.80
2023-04-25T00:38:55.381Z,5.80
2023-04-25T00:41:22.461Z,5.80
2023-04-25T00:43:49.972Z,5.70
2023-04-25T00:46:17.110Z,5.70
2023-04-25T00:48:44.135Z,5.60
2023-04-25T00:51:11.012Z,5.60
2023-04-25T00:53:40.931Z,5.60
2023-04-25T00:56:08.064Z,5.60
2023-04-25T00:58:35.073Z,5.50
2023-04-25T01:01:02.058Z,5.50
2023-04-25T01:03:29.893Z,5.40
2023-04-25T01:05:57.700Z,5.40
2023-04-25T01:08:25.757Z,5.40
2023-04-25T01:10:52.712Z,5.50
2023-04-25T01:13:19.518Z,5.30
2023-04-25T01:15:46.344Z,5.20
2023-04-25T01:18:13.582Z,5.20
2023-04-25T01:20:40.494Z,5.20
2023-04-25T01:23:07.454Z,5.10
2023-04-25T01:25:34.425Z,5.10
2023-04-25T01:28:02.644Z,5.20
2023-04-25T01:30:29.614Z,5.10
2023-04-25T01:33:00.322Z,5.10
2023-04-25T01:35:27.379Z,5.00
2023-04-25T01:37:54.353Z,5.00
2023-04-25T01:40:21.876Z,4.80
2023-04-25T01:42:48.834Z,4.90
2023-04-25T01:45:15.623Z,4.90
2023-04-25T01:47:44.129Z,4.80
2023-04-25T01:50:12.273Z,4.80
2023-04-25T01:52:39.174Z,4.80
2023-04-25T01:55:07.547Z,4.80
2023-04-25T01:57:34.329Z,4.70
2023-04-25T02:00:02.444Z,4.90
2023-04-25T02:02:29.526Z,4.70
2023-04-25T02:04:57.500Z,4.70
2023-04-25T02:07:24.297Z,4.70
2023-04-25T02:09:51.297Z,4.70
2023-04-25T02:12:18.079Z,4.60
2023-04-25T02:14:45.064Z,4.60
2023-04-25T02:17:13.595Z,4.60
2023-04-25T02:19:42.377Z,4.60
2023-04-25T02:22:09.316Z,4.50
2023-04-25T02:24:36.263Z,4.50
2023-04-25T02:27:03.464Z,4.50
2023-04-25T02:29:30.902Z,4.50
2023-04-25T02:31:58.155Z,4.40
2023-04-25T02:34:25.053Z,4.40
2023-04-25T02:36:52.480Z,4.40
2023-04-25T02:39:20.055Z,4.40
2023-04-25T02:41:46.977Z,4.30
2023-04-25T02:44:13.834Z,4.30
2023-04-25T02:46:40.820Z,4.20
2023-04-25T02:49:07.996Z,4.30
2023-04-25T02:51:35.018Z,4.30
2023-04-25T02:54:02.042Z,4.10
2023-04-25T02:56:28.982Z,4.10
2023-04-25T02:58:56.067Z,4.10
2023-04-25T03:01:23.053Z,4.10
2023-04-25T03:03:50.287Z,4.00
2023-04-25T03:06:17.301Z,4.10
2023-04-25T03:08:44.517Z,4.00
2023-04-25T03:11:11.697Z,3.90
2023-04-25T03:13:38.666Z,4.00
2023-04-25T03:16:09.046Z,4.00
2023-04-25T03:18:36.825Z,3.90
2023-04-25T03:21:04.354Z,3.90
2023-04-25T03:23:31.594Z,3.90
2023-04-25T03:25:58.968Z,4.10
2023-04-25T03:28:26.481Z,3.90
2023-04-25T03:30:53.534Z,3.80
2023-04-25T03:33:20.789Z,3.80
2023-04-25T03:35:47.801Z,3.80
2023-04-25T03:38:14.703Z,3.80
2023-04-25T03:40:42.944Z,3.70
2023-04-25T03:43:09.755Z,3.70
2023-04-25T03:45:36.606Z,3.70
2023-04-25T03:48:03.674Z,3.60
2023-04-25T03:50:30.669Z,3.70
2023-04-25T03:52:57.843Z,3.80
2023-04-25T03:55:24.901Z,3.70
2023-04-25T03:57:51.843Z,3.80
2023-04-25T04:00:18.802Z,3.60
2023-04-25T04:02:46.103Z,3.60
2023-04-25T04:05:17.912Z,3.80
2023-04-25T04:07:45.213Z,3.60
2023-04-25T04:10:12.465Z,3.50
2023-04-25T04:12:39.409Z,3.50
2023-04-25T04:15:09.212Z,3.50
2023-04-25T04:17:36.490Z,3.50
2023-04-25T04:20:05.405Z,3.50
2023-04-25T04:22:32.353Z,4.20
2023-04-25T04:24:59.489Z,3.50
2023-04-25T04:27:26.330Z,3.70
2023-04-25T04:29:54.387Z,4.30
2023-04-25T04:32:21.456Z,3.50
2023-04-25T04:34:48.693Z,3.40
2023-04-25T04:37:19.538Z,3.40
2023-04-25T04:40:12.698Z,3.40
2023-04-25T04:42:44.155Z,3.40
2023-04-25T04:45:11.732Z,3.40
2023-04-25T04:47:43.019Z,3.40
2023-04-25T04:50:12.065Z,3.40
2023-04-25T04:52:39.327Z,3.40
2023-04-25T04:55:07.155Z,3.40
2023-04-25T04:57:36.589Z,3.30
2023-04-25T05:00:06.299Z,3.40
2023-04-25T05:02:33.421Z,3.30
2023-04-25T05:05:03.696Z,3.30
2023-04-25T05:07:30.940Z,3.30
2023-04-25T05:09:58.677Z,3.30
2023-04-25T05:12:25.602Z,3.50
2023-04-25T05:14:53.804Z,3.30
2023-04-25T05:17:20.975Z,3.30
2023-04-25T05:20:06.347Z,3.30
2023-04-25T05:22:33.508Z,3.30
2023-04-25T05:25:00.569Z,3.30
2023-04-25T05:27:31.282Z,3.30
2023-04-25T05:29:59.214Z,3.30
2023-04-25T05:32:26.803Z,3.30
2023-04-25T05:34:53.938Z,3.30
2023-04-25T05:37:21.073Z,3.30
2023-04-25T05:39:51.442Z,3.20
2023-04-25T05:42:20.949Z,3.40
2023-04-25T05:44:48.455Z,3.40
2023-04-25T05:47:18.591Z,3.40
2023-04-25T05:50:01.412Z,3.50
2023-04-25T05:52:32.996Z,3.50
2023-04-25T05:58:03.663Z,3.60
2023-04-25T06:00:35.170Z,3.60
2023-04-25T06:03:03.304Z,3.60
2023-04-25T06:05:34.247Z,3.70
2023-04-25T06:08:02.632Z,3.70
2023-04-25T06:10:32.203Z,3.70
2023-04-25T06:12:59.518Z,3.80
2023-04-25T06:15:28.690Z,3.90
2023-04-25T06:17:57.305Z,3.90
2023-04-25T06:20:25.741Z,3.90
2023-04-25T06:22:52.982Z,4.00
2023-04-25T06:25:21.253Z,4.10
2023-04-25T06:27:51.208Z,4.30
2023-04-25T06:30:23.346Z,4.20
2023-04-25T06:32:50.363Z,4.30
2023-04-25T06:35:17.395Z,4.40
2023-04-25T06:37:44.337Z,4.40
2023-04-25T06:40:12.015Z,4.50
2023-04-25T06:42:38.946Z,4.50
2023-04-25T06:45:06.284Z,4.60
2023-04-25T06:47:33.254Z,4.60
2023-04-25T06:50:00.527Z,4.70
2023-04-25T06:52:27.513Z,4.80
2023-04-25T06:54:54.806Z,4.80
2023-04-25T06:57:21.757Z,5.00
2023-04-25T06:59:48.803Z,4.90
2023-04-25T07:02:16.153Z,5.00
2023-04-25T07:04:43.406Z,5.00
2023-04-25T07:07:11.290Z,5.10
2023-04-25T07:09:38.243Z,5.10
2023-04-25T07:12:05.785Z,5.20
2023-04-25T07:14:32.821Z,5.20
2023-04-25T07:16:59.939Z,5.20
2023-04-25T07:19:27.945Z,5.40
2023-04-25T07:21:54.877Z,5.30
2023-04-25T07:24:21.832Z,5.40
2023-04-25T07:26:48.896Z,5.40
2023-04-25T07:29:15.820Z,5.50
2023-04-25T07:31:42.921Z,5.50
2023-04-25T07:34:09.844Z,5.60
2023-04-25T07:36:36.674Z,5.70
2023-04-25T07:39:03.665Z,5.70
2023-04-25T07:41:30.595Z,5.80
2023-04-25T07:43:57.713Z,5.80
2023-04-25T07:46:24.927Z,5.80
2023-04-25T07:48:52.187Z,5.90
2023-04-25T07:51:21.043Z,5.90
2023-04-25T07:53:49.545Z,6.10
2023-04-25T07:56:18.165Z,6.10
2023-04-25T07:58:47.301Z,6.10
2023-04-25T08:01:14.208Z,6.20
2023-04-25T08:03:41.528Z,6.20
2023-04-25T08:06:09.002Z,6.10
2023-04-25T08:08:36.375Z,6.20
2023-04-25T08:11:03.347Z,6.30
2023-04-25T08:13:30.335Z,6.30
2023-04-25T08:15:57.206Z,6.40
2023-04-25T08:18:24.194Z,6.40
2023-04-25T08:20:51.654Z,6.50
2023-04-25T08:23:18.523Z,6.50
2023-04-25T08:25:45.332Z,6.50
2023-04-25T08:28:23.405Z,6.60
2023-04-25T08:30:50.469Z,6.70
2023-04-25T08:33:17.564Z,6.60
2023-04-25T08:35:45.869Z,6.80
2023-04-25T08:38:12.699Z,6.90
2023-04-25T08:40:40.003Z,7.00
2023-04-25T08:43:12.853Z,7.10
2023-04-25T08:45:43.754Z,7.20
2023-04-25T08:48:21.053Z,7.10
2023-04-25T08:50:58.044Z,7.20
2023-04-25T08:53:29.214Z,7.30
2023-04-25T08:55:56.911Z,7.50
2023-04-25T08:58:23.956Z,7.50
2023-04-25T09:00:51.834Z,7.60
2023-04-25T09:03:19.362Z,7.70
2023-04-25T09:05:46.658Z,7.70
2023-04-25T09:08:13.516Z,7.80
2023-04-25T09:10:43.362Z,7.90
2023-04-25T09:13:11.616Z,8.00
2023-04-25T09:15:52.375Z,8.10
2023-04-25T09:18:30.759Z,8.20
2023-04-25T09:21:14.391Z,8.30
2023-04-25T09:23:49.196Z,8.40
2023-04-25T09:26:18.279Z,8.50
2023-04-25T09:28:45.304Z,8.50
2023-04-25T09:31:12.699Z,8.80
2023-04-25T09:33:42.269Z,8.90
2023-04-25T09:36:09.929Z,9.10
2023-04-25T09:38:46.939Z,9.40
2023-04-25T09:41:14.050Z,9.60
2023-04-25T09:43:41.240Z,10.00
2023-04-25T09:46:14.671Z,10.10
2023-04-25T09:48:43.302Z,10.40
2023-04-25T09:51:11.885Z,10.60
2023-04-25T09:53:40.191Z,10.90
2023-04-25T09:56:08.639Z,11.10
2023-04-25T09:58:37.323Z,11.40
2023-04-25T10:01:08.891Z,11.60
2023-04-25T10:03:37.472Z,11.60
2023-04-25T10:06:08.380Z,11.60
2023-04-25T10:08:37.222Z,11.60
2023-04-25T10:11:08.941Z,11.70
2023-04-25T10:13:36.681Z,11.70
2023-04-25T10:16:04.938Z,11.80
2023-04-25T10:18:32.718Z,11.90
2023-04-25T10:21:01.359Z,12.10
2023-04-25T10:23:28.508Z,12.40
2023-04-25T10:25:55.448Z,12.60
2023-04-25T10:28:22.505Z,12.70
2023-04-25T10:31:06.670Z,12.70
2023-04-25T10:33:38.269Z,12.80
2023-04-25T10:36:22.781Z,12.80
2023-04-25T10:38:54.500Z,12.90
2023-04-25T10:41:22.413Z,13.10
2023-04-25T10:43:49.964Z,13.10
2023-04-25T10:46:24.046Z,13.20
2023-04-25T10:49:00.218Z,13.40
2023-04-25T10:51:39.944Z,13.50
2023-04-25T10:54:18.303Z,13.60
2023-04-25T10:56:45.787Z,13.50
2023-04-25T10:59:19.780Z,13.40
2023-04-25T11:01:47.640Z,13.20
2023-04-25T11:04:31.022Z,12.90
2023-04-25T11:07:08.453Z,12.60
2023-04-25T11:09:37.776Z,12.30
2023-04-25T11:12:04.885Z,12.10
2023-04-25T11:14:32.131Z,12.30
2023-04-25T11:17:00.711Z,12.40
2023-04-25T11:19:28.306Z,12.40
2023-04-25T11:22:02.491Z,12.40
2023-04-25T11:24:32.958Z,12.30
2023-04-25T11:27:00.177Z,12.10
2023-04-25T11:29:31.034Z,12.00
2023-04-25T11:32:00.066Z,11.90
2023-04-25T11:34:27.230Z,11.70
2023-04-25T11:36:54.545Z,11.70
2023-04-25T11:39:21.613Z,11.80
2023-04-25T11:41:48.678Z,11.90
2023-04-25T11:44:19.132Z,11.90
2023-04-25T11:46:46.405Z,12.00
2023-04-25T11:49:14.078Z,12.10
2023-04-25T11:51:46.839Z,12.10
2023-04-25T11:54:13.950Z,12.10
2023-04-25T11:56:44.648Z,12.20
2023-04-25T11:59:12.473Z,12.50
2023-04-25T12:01:41.103Z,12.90
2023-04-25T12:04:17.797Z,13.50
2023-04-25T12:06:51.091Z,13.90
2023-04-25T12:09:22.634Z,13.90
2023-04-25T12:11:50.551Z,13.70
2023-04-25T12:14:31.727Z,13.50
2023-04-25T12:17:03.571Z,13.30
2023-04-25T12:19:34.731Z,13.00
2023-04-25T12:22:02.661Z,12.80
2023-04-25T12:24:29.730Z,12.70
2023-04-25T12:27:01.979Z,12.90
2023-04-25T12:29:34.742Z,13.30
2023-04-25T12:32:09.237Z,13.70
2023-04-25T12:34:37.142Z,13.90
2023-04-25T12:37:04.476Z,13.80
2023-04-25T12:39:31.335Z,13.60
2023-04-25T12:41:58.439Z,13.50
2023-04-25T12:44:25.550Z,13.30
2023-04-25T12:46:52.999Z,13.10
2023-04-25T12:49:20.176Z,13.00
2023-04-25T12:51:47.848Z,12.90
2023-04-25T12:54:15.511Z,12.80
2023-04-25T12:56:42.884Z,12.70
2023-04-25T12:59:11.158Z,12.70
2023-04-25T13:01:38.604Z,12.70
2023-04-25T13:04:05.930Z,12.80
2023-04-25T13:06:33.032Z,13.10
2023-04-25T13:09:00.113Z,13.60
2023-04-25T13:11:27.323Z,14.10
2023-04-25T13:13:54.581Z,14.60
2023-04-25T13:16:22.668Z,15.00
2023-04-25T13:18:49.910Z,14.90
2023-04-25T13:21:17.360Z,14.70
2023-04-25T13:23:45.671Z,14.60
2023-04-25T13:26:12.579Z,14.40
2023-04-25T13:28:39.513Z,14.20
2023-04-25T13:31:06.345Z,13.90
2023-04-25T13:33:33.160Z,13.70
2023-04-25T13:36:01.383Z,13.60
2023-04-25T13:38:28.244Z,13.40
2023-04-25T13:40:55.114Z,13.20
2023-04-25T13:43:23.018Z,13.10
2023-04-25T13:45:50.690Z,13.00
2023-04-25T13:48:17.601Z,13.00
2023-04-25T13:50:44.589Z,12.90
2023-04-25T13:53:11.433Z,12.90
2023-04-25T13:55:38.524Z,13.10
2023-04-25T13:58:08.692Z,13.50
2023-04-25T14:00:39.413Z,14.30
2023-04-25T14:03:08.523Z,14.40
2023-04-25T14:05:40.121Z,15.10
2023-04-25T14:08:10.660Z,15.50
2023-04-25T14:10:37.839Z,15.60
2023-04-25T14:13:05.488Z,15.50
2023-04-25T14:15:35.772Z,15.40
2023-04-25T14:18:03.051Z,15.10
2023-04-25T14:20:30.073Z,14.90
2023-04-25T14:22:59.052Z,14.60
2023-04-25T14:25:26.667Z,14.40
2023-04-25T14:27:53.868Z,14.20
2023-04-25T14:30:21.479Z,14.00
2023-04-25T14:32:50.023Z,13.80
2023-04-25T14:35:16.970Z,13.70
2023-04-25T14:37:44.018Z,13.60
2023-04-25T14:40:11.855Z,13.60
2023-04-25T14:42:38.817Z,13.50
2023-04-25T14:45:07.688Z,13.50
2023-04-25T14:47:34.808Z,13.60
2023-04-25T14:50:02.808Z,13.60
2023-04-25T14:52:30.181Z,13.70
2023-04-25T14:54:57.269Z,13.60
2023-04-25T14:57:24.115Z,13.60
2023-04-25T14:59:51.712Z,13.60
2023-04-25T15:02:18.862Z,13.60
2023-04-25T15:04:45.887Z,13.50
2023-04-25T15:07:12.827Z,13.40
2023-04-25T15:09:39.737Z,13.40
2023-04-25T15:12:06.916Z,13.30
2023-04-25T15:14:34.949Z,13.30
2023-04-25T15:17:02.336Z,13.40
2023-04-25T15:19:29.426Z,13.40
2023-04-25T15:21:56.939Z,13.30
2023-04-25T15:24:23.931Z,13.20
2023-04-25T15:26:51.584Z,13.20
2023-04-25T15:29:18.454Z,13.20
2023-04-25T15:31:45.511Z,13.20
2023-04-25T15:34:12.438Z,13.30
2023-04-25T15:36:39.375Z,13.20
2023-04-25T15:39:06.298Z,13.20
2023-04-25T15:41:33.083Z,13.10
2023-04-25T15:44:01.748Z,13.00
2023-04-25T15:46:31.175Z,13.00
2023-04-25T15:48:58.741Z,12.90
2023-04-25T15:51:25.634Z,12.90
2023-04-25T15:53:52.847Z,12.80
2023-04-25T15:56:20.074Z,12.80
2023-04-25T15:58:46.970Z,12.90
2023-04-25T16:01:13.908Z,12.70
2023-04-25T16:03:40.983Z,12.70
2023-04-25T16:06:08.169Z,12.70
2023-04-25T16:08:36.131Z,12.70
2023-04-25T16:11:03.605Z,12.70
2023-04-25T16:13:30.523Z,12.70
2023-04-25T16:15:59.696Z,12.70
2023-04-25T16:18:26.460Z,12.70
2023-04-25T16:20:53.579Z,12.80
2023-04-25T16:23:20.608Z,12.90
2023-04-25T16:25:47.818Z,12.90
2023-04-25T16:28:14.857Z,13.10
2023-04-25T16:30:41.677Z,13.30
2023-04-25T16:33:09.128Z,13.50
2023-04-25T16:35:36.000Z,13.80
2023-04-25T16:38:05.023Z,14.20
2023-04-25T16:40:31.915Z,14.50
2023-04-25T16:42:58.947Z,14.90
2023-04-25T16:45:26.944Z,15.10
2023-04-25T16:47:54.077Z,15.20
2023-04-25T16:50:21.004Z,15.10
2023-04-25T16:52:47.830Z,15.00
2023-04-25T16:55:15.070Z,14.90
2023-04-25T16:57:42.430Z,14.70
2023-04-25T17:00:10.370Z,14.60
2023-04-25T17:02:37.653Z,14.40
2023-04-25T17:05:05.349Z,14.30
2023-04-25T17:07:32.513Z,14.10
2023-04-25T17:09:59.415Z,13.90
2023-04-25T17:12:26.247Z,13.70
2023-04-25T17:14:53.212Z,13.60
2023-04-25T17:17:21.478Z,13.40
2023-04-25T17:19:48.415Z,13.20
2023-04-25T17:22:15.729Z,13.00
2023-04-25T17:24:42.774Z,12.90
2023-04-25T17:27:13.659Z,12.90
2023-04-25T17:29:41.421Z,12.80
2023-04-25T17:32:08.245Z,12.90
2023-04-25T17:34:37.645Z,12.90
2023-04-25T17:37:04.587Z,12.90
2023-04-25T17:39:31.586Z,12.80
2023-04-25T17:42:00.869Z,12.80
2023-04-25T17:44:27.981Z,12.70
2023-04-25T17:46:54.884Z,12.50
2023-04-25T17:49:21.681Z,12.40
2023-04-25T17:51:48.473Z,12.30
2023-04-25T17:54:15.381Z,12.10
2023-04-25T17:56:44.129Z,12.00
2023-04-25T17:59:11.500Z,12.10
2023-04-25T18:01:38.476Z,11.90
2023-04-25T18:04:05.956Z,11.80
2023-04-25T18:06:33.209Z,11.70
2023-04-25T18:09:00.237Z,11.60
2023-04-25T18:11:27.209Z,11.60
2023-04-25T18:13:54.564Z,11.50
2023-04-25T18:16:21.843Z,11.40
2023-04-25T18:18:55.311Z,11.40
2023-04-25T18:21:22.414Z,11.20
2023-04-25T18:23:49.396Z,11.20
2023-04-25T18:26:16.296Z,11.10
2023-04-25T18:28:43.234Z,11.10
2023-04-25T18:31:10.182Z,11.00
2023-04-25T18:33:37.053Z,10.90
2023-04-25T18:36:04.344Z,10.80
2023-04-25T18:38:35.952Z,10.80
2023-04-25T18:43:47.910Z,10.60
2023-04-25T18:46:15.002Z,10.50
2023-04-25T18:48:43.030Z,10.40
2023-04-25T18:51:10.177Z,10.30
2023-04-25T18:53:37.656Z,10.20
2023-04-25T18:56:04.819Z,10.20
2023-04-25T18:58:32.562Z,10.10
2023-04-25T19:01:00.097Z,10.00
2023-04-25T19:03:28.475Z,9.90
2023-04-25T19:05:56.112Z,9.80
2023-04-25T19:08:24.228Z,9.70
2023-04-25T19:10:57.649Z,9.70
2023-04-25T19:13:25.711Z,9.60
2023-04-25T19:15:52.493Z,9.60
2023-04-25T19:18:19.547Z,9.50
2023-04-25T19:20:46.838Z,9.50
2023-04-25T19:23:13.557Z,9.30
2023-04-25T19:25:40.619Z,9.30
2023-04-25T19:28:08.805Z,9.20
2023-04-25T19:30:35.623Z,9.10
2023-04-25T19:33:03.617Z,9.00
2023-04-25T19:35:32.808Z,9.00
2023-04-25T19:37:59.970Z,8.90
2023-04-25T19:40:26.994Z,8.80
2023-04-25T19:42:57.930Z,8.80
2023-04-25T19:45:30.575Z,8.40
2023-04-25T19:48:01.611Z,8.70
2023-04-25T19:50:34.639Z,8.60
2023-04-25T19:53:01.986Z,8.50
2023-04-25T19:55:28.928Z,8.30
2023-04-25T19:58:04.643Z,8.40
2023-04-25T20:00:35.970Z,8.30
2023-04-25T20:03:03.196Z,8.30
2023-04-25T20:05:32.384Z,8.20
2023-04-25T20:08:00.280Z,8.20
2023-04-25T20:11:03.286Z,8.20
2023-04-25T20:13:32.676Z,8.10
2023-04-25T20:16:03.332Z,8.40
2023-04-25T20:18:30.975Z,8.10
2023-04-25T20:21:00.718Z,7.80
2023-04-25T20:23:27.948Z,8.20
2023-04-25T20:25:54.922Z,8.30
2023-04-25T20:28:23.378Z,8.20
2023-04-25T20:30:50.909Z,8.40
2023-04-25T20:33:17.973Z,8.20
2023-04-25T20:35:44.844Z,8.20
2023-04-25T20:38:12.361Z,8.20
2023-04-25T20:40:39.394Z,8.40
2023-04-25T20:43:06.367Z,8.20
2023-04-25T20:45:34.715Z,8.20
2023-04-25T20:48:02.950Z,8.10
2023-04-25T20:50:29.862Z,8.10
2023-04-25T20:52:57.413Z,8.10
2023-04-25T20:55:24.715Z,8.00
2023-04-25T20:57:52.239Z,8.00
2023-04-25T21:00:26.993Z,8.00
2023-04-25T21:02:54.960Z,8.00
2023-04-25T21:05:22.589Z,8.00
2023-04-25T21:07:50.142Z,7.90
2023-04-25T21:10:17.503Z,7.90
2023-04-25T21:12:48.253Z,7.80
2023-04-25T21:15:20.612Z,7.80
2023-04-25T21:17:48.442Z,7.80
2023-04-25T21:20:17.902Z,7.70
2023-04-25T21:22:53.009Z,7.70
2023-04-25T21:25:31.744Z,7.70
2023-04-25T21:27:59.308Z,7.60
2023-04-25T21:30:26.970Z,7.50
2023-04-25T21:32:54.112Z,7.50
2023-04-25T21:35:21.803Z,7.50
2023-04-25T21:37:49.268Z,7.90
2023-04-25T21:40:16.472Z,7.30
2023-04-25T21:42:44.799Z,7.40
2023-04-25T21:45:12.170Z,7.30
2023-04-25T21:47:43.422Z,7.30
2023-04-25T21:50:11.564Z,7.30
2023-04-25T21:52:38.926Z,7.00
2023-04-25T21:55:06.628Z,7.20
2023-04-25T21:57:33.567Z,7.10
2023-04-25T22:00:00.574Z,7.20
2023-04-25T22:02:29.986Z,7.10
2023-04-25T22:04:57.432Z,7.10
2023-04-25T22:07:24.574Z,7.00
2023-04-25T22:09:55.456Z,7.00
2023-04-25T22:12:23.883Z,7.60
2023-04-25T22:14:51.193Z,6.90
2023-04-25T22:17:19.504Z,7.20
2023-04-25T22:19:47.336Z,6.60
2023-04-25T22:22:15.168Z,6.80
2023-04-25T22:24:42.440Z,6.90
2023-04-25T22:27:11.294Z,6.80
2023-04-25T22:29:38.479Z,6.50
2023-04-25T22:32:05.621Z,7.30
2023-04-25T22:34:33.134Z,6.80
2023-04-25T22:37:00.535Z,6.80
2023-04-25T22:39:28.736Z,7.30
2023-04-25T22:41:56.452Z,6.70
2023-04-25T22:44:23.498Z,6.70
2023-04-25T22:46:53.772Z,6.70
2023-04-25T22:49:20.978Z,6.70
2023-04-25T22:51:55.720Z,6.70
2023-04-25T22:54:22.796Z,7.10
2023-04-25T22:56:50.503Z,6.70
2023-04-25T22:59:18.281Z,6.70
2023-04-25T23:01:45.442Z,6.70
2023-04-25T23:04:34.949Z,6.60
2023-04-25T23:07:02.702Z,6.60
2023-04-25T23:09:35.633Z,6.60
2023-04-25T23:12:06.627Z,7.10
2023-04-25T23:14:33.805Z,7.10
2023-04-25T23:17:00.863Z,6.60
2023-04-25T23:19:28.770Z,6.80
2023-04-25T23:22:04.139Z,6.60
2023-04-25T23:24:33.183Z,6.40
2023-04-25T23:27:00.135Z,6.40
2023-04-25T23:29:27.417Z,6.30
2023-04-25T23:31:55.731Z,6.30
2023-04-25T23:34:22.710Z,6.30
2023-04-25T23:36:49.647Z,6.80
2023-04-25T23:39:47.411Z,6.10
2023-04-25T23:42:14.349Z,6.10
2023-04-25T23:44:41.921Z,6.00
2023-04-25T23:47:08.987Z,6.20
2023-04-25T23:49:36.404Z,5.90
2023-04-25T23:52:04.107Z,5.90
2023-04-25T23:54:31.893Z,5.90
2023-04-25T23:56:59.343Z,5.40
2023-04-25T23:59:26.501Z,5.80
